메인 페이지
METAR-TAF:

METAR-TAF

공항 :

인디라 간디 국제공항

뉴델리, 인도

위도: 28-34N, 경도: 077-07E, 고도: 220m

현재 날씨관측

예보는 33분 전, 14:00시(UTC)에 발표되었습니다.
6kt
온도 22°C
습도 60%
기압 1016 hPa
시정: 2500m
고도 4000ft 상공 구름 조금
고도 10000ft 상공 구름 보통
연무

METAR: VIDP 191400Z 10006KT 2500 HZ FEW040 SCT100 22/14 Q1016 NOSIG

시각: 20:03 (14:33 UTC)

예보

예보는 3 시간 33분 전, 11:00시(UTC)에 발표되었습니다.
예보 대상 시간: 19일 12시부터 20일 18시까지 (UTC)
7kt
시정: 2500m
고도 4000ft 상공 구름 보통
고도 10000ft 상공 구름 보통
연무
전환 중
19일 18시부터 19일 20시까지 (UTC)
5kt
시정: 2000m
고도 3500ft 상공 구름 보통
고도 9000ft 상공 구름 보통
박무
전환 중
20일 01시부터 20일 03시까지 (UTC)
시정: 1200m
박무
전환 중
20일 06시부터 20일 08시까지 (UTC)
서북서8kt
시정: 3500m
연기, 연무

TAF: VIDP 191100Z 1912/2018 09007KT 2500 HZ SCT040 SCT100 BECMG 1918/1920 10005KT 2000 BR SCT035 SCT090 BECMG 2001/2003 3003KT 1200 BR BECMG 2006/2008 30008KT 3500 FU HZ

4,000개 이상의 공항 관측 자료 및 예보 (METAR 및 TAF 보고).

지도상에서 검색 가능한 기상관측소가 노란 점과 빨간 점으로 표시되어 있습니다.

기상관측소 명을 보려면 표시 위로 마우스를 이동하세요.

날씨 관측과 예보를 보려면 클릭하세요.

지도 변경 : 확대하려면 엑스 표시가 있는 녹색 버튼, 축소하려면 빼기 표시가 있는 녹색 버튼, 다음 페이지의 지도를 보려면 녹색 화살표를 클릭하세요.


METAR-TAF: